createdAt,value
2018-02-15T00:01:55.930Z,24.56
2018-02-15T00:04:24.691Z,24.75
2018-02-15T00:06:54.398Z,24.54
2018-02-15T00:09:23.607Z,24.00
2018-02-15T00:11:52.887Z,23.76
2018-02-15T00:14:21.862Z,23.57
2018-02-15T00:16:50.917Z,23.47
2018-02-15T00:19:19.701Z,23.44
2018-02-15T00:21:49.013Z,23.37
2018-02-15T00:26:43.714Z,23.15
2018-02-15T00:29:12.811Z,23.16
2018-02-15T00:31:42.391Z,23.19
2018-02-15T00:34:12.654Z,23.46
2018-02-15T00:36:41.761Z,24.21
2018-02-15T00:39:10.745Z,24.52
2018-02-15T00:41:40.041Z,24.57
2018-02-15T00:44:08.912Z,24.89
2018-02-15T00:46:37.634Z,24.23
2018-02-15T00:49:06.749Z,23.84
2018-02-15T00:51:35.799Z,23.57
2018-02-15T00:54:04.815Z,23.48
2018-02-15T00:56:33.952Z,23.40
2018-02-15T00:59:02.618Z,23.28
2018-02-15T01:01:32.346Z,23.20
2018-02-15T01:04:01.887Z,23.15
2018-02-15T01:06:30.907Z,23.14
2018-02-15T01:08:59.705Z,23.08
2018-02-15T01:11:29.386Z,23.05
2018-02-15T01:13:57.845Z,23.11
2018-02-15T01:16:27.468Z,23.01
2018-02-15T01:18:56.790Z,23.95
2018-02-15T01:21:26.227Z,24.38
2018-02-15T01:23:55.606Z,24.59
2018-02-15T01:26:25.006Z,24.65
2018-02-15T01:28:54.377Z,24.23
2018-02-15T01:31:23.880Z,23.68
2018-02-15T01:33:53.502Z,23.47
2018-02-15T01:36:22.910Z,23.33
2018-02-15T01:38:51.432Z,23.23
2018-02-15T01:41:20.784Z,23.12
2018-02-15T01:43:49.977Z,23.03
2018-02-15T01:46:19.370Z,23.01
2018-02-15T01:48:49.475Z,22.93
2018-02-15T01:51:19.489Z,22.88
2018-02-15T01:53:49.505Z,22.95
2018-02-15T01:56:19.418Z,23.42
2018-02-15T01:58:48.821Z,24.05
2018-02-15T02:01:18.329Z,24.31
2018-02-15T02:03:47.884Z,24.62
2018-02-15T02:06:17.447Z,24.35
2018-02-15T02:08:46.894Z,23.84
2018-02-15T02:11:15.994Z,23.55
2018-02-15T02:13:44.543Z,23.38
2018-02-15T02:16:13.891Z,23.30
2018-02-15T02:18:42.916Z,23.17
2018-02-15T02:21:12.229Z,23.13
2018-02-15T02:23:41.807Z,23.09
2018-02-15T02:26:10.870Z,23.01
2018-02-15T02:30:01.024Z,23.02
2018-02-15T02:35:55.705Z,24.18
2018-02-15T02:38:25.447Z,24.16
2018-02-15T02:40:55.373Z,24.60
2018-02-15T02:43:24.885Z,24.32
2018-02-15T02:45:54.232Z,23.75
2018-02-15T02:48:24.214Z,23.48
2018-02-15T02:50:53.997Z,23.39
2018-02-15T02:53:23.474Z,23.24
2018-02-15T02:55:53.429Z,23.13
2018-02-15T02:58:22.920Z,23.08
2018-02-15T03:00:51.832Z,23.04
2018-02-15T03:03:21.734Z,23.05
2018-02-15T03:05:50.887Z,23.14
2018-02-15T03:08:20.594Z,22.99
2018-02-15T03:10:49.719Z,22.92
2018-02-15T03:13:19.453Z,23.05
2018-02-15T03:15:48.901Z,23.83
2018-02-15T03:18:18.684Z,24.27
2018-02-15T03:20:48.301Z,24.38
2018-02-15T03:23:18.488Z,24.42
2018-02-15T03:25:47.882Z,23.67
2018-02-15T03:29:54.763Z,23.27
2018-02-15T03:32:24.486Z,23.10
2018-02-15T03:34:54.523Z,23.06
2018-02-15T03:37:24.387Z,23.00
2018-02-15T03:39:54.186Z,22.95
2018-02-15T03:42:23.931Z,22.96
2018-02-15T03:44:53.027Z,22.87
2018-02-15T03:47:22.201Z,22.81
2018-02-15T03:49:52.458Z,22.84
2018-02-15T03:52:22.207Z,23.78
2018-02-15T03:54:51.950Z,24.14
2018-02-15T03:57:20.826Z,24.39
2018-02-15T04:01:27.727Z,24.24
2018-02-15T04:03:57.049Z,23.66
2018-02-15T04:06:26.926Z,23.40
2018-02-15T04:08:55.735Z,23.26
2018-02-15T04:11:25.194Z,23.14
2018-02-15T04:13:54.808Z,23.02
2018-02-15T04:16:24.479Z,22.88
2018-02-15T04:18:53.804Z,22.92
2018-02-15T04:21:23.466Z,22.88
2018-02-15T04:23:52.726Z,22.80
2018-02-15T04:26:21.928Z,23.50
2018-02-15T04:31:36.678Z,24.13
2018-02-15T04:34:06.346Z,24.50
2018-02-15T04:36:35.779Z,23.95
2018-02-15T04:39:04.934Z,23.45
2018-02-15T04:41:33.658Z,23.27
2018-02-15T04:44:03.397Z,23.15
2018-02-15T04:46:33.071Z,23.10
2018-02-15T04:49:01.779Z,23.13
2018-02-15T04:51:31.381Z,23.07
2018-02-15T04:54:01.202Z,23.05
2018-02-15T04:56:30.513Z,23.01
2018-02-15T04:58:59.760Z,22.96
2018-02-15T05:01:28.927Z,22.91
2018-02-15T05:03:57.709Z,22.99
2018-02-15T05:06:27.060Z,23.86
2018-02-15T05:08:55.698Z,24.36
2018-02-15T05:11:24.883Z,24.48
2018-02-15T05:15:23.827Z,24.28
2018-02-15T05:17:52.906Z,23.68
2018-02-15T05:20:21.691Z,23.37
2018-02-15T05:24:09.912Z,23.18
2018-02-15T05:26:38.388Z,23.08
2018-02-15T05:29:06.795Z,23.02
2018-02-15T05:31:35.874Z,22.97
2018-02-15T05:34:04.838Z,22.91
2018-02-15T05:36:34.493Z,22.91
2018-02-15T05:39:03.674Z,22.88
2018-02-15T05:41:32.829Z,23.33
2018-02-15T05:44:02.199Z,24.12
2018-02-15T05:46:31.213Z,24.31
2018-02-15T05:49:01.259Z,24.64
2018-02-15T05:51:30.638Z,24.40
2018-02-15T05:53:59.815Z,23.84
2018-02-15T05:56:29.197Z,23.50
2018-02-15T05:58:58.681Z,23.38
2018-02-15T06:01:28.192Z,23.25
2018-02-15T06:03:57.815Z,23.18
2018-02-15T06:06:27.205Z,23.21
2018-02-15T06:08:56.912Z,23.19
2018-02-15T06:11:25.833Z,23.08
2018-02-15T06:13:55.222Z,23.01
2018-02-15T06:16:24.946Z,23.48
2018-02-15T06:18:53.814Z,24.07
2018-02-15T06:21:23.075Z,24.13
2018-02-15T06:23:52.020Z,24.32
2018-02-15T06:26:20.725Z,24.44
2018-02-15T06:28:50.335Z,23.86
2018-02-15T06:31:19.778Z,23.62
2018-02-15T06:33:49.364Z,23.49
2018-02-15T06:36:19.270Z,23.42
2018-02-15T06:38:49.169Z,23.33
2018-02-15T06:41:18.792Z,23.34
2018-02-15T06:43:48.171Z,23.31
2018-02-15T06:46:17.369Z,23.30
2018-02-15T06:48:46.751Z,23.30
2018-02-15T06:51:16.369Z,23.26
2018-02-15T06:53:46.365Z,23.29
2018-02-15T06:56:15.896Z,23.54
2018-02-15T06:58:45.418Z,24.54
2018-02-15T07:01:14.910Z,24.55
2018-02-15T07:03:43.621Z,24.79
2018-02-15T07:06:13.229Z,24.85
2018-02-15T07:09:18.173Z,24.38
2018-02-15T07:11:47.390Z,24.22
2018-02-15T07:14:17.372Z,24.10
2018-02-15T07:16:47.239Z,24.04
2018-02-15T07:21:46.819Z,23.67
2018-02-15T07:24:16.434Z,23.74
2018-02-15T07:26:46.457Z,23.68
2018-02-15T07:29:16.225Z,23.70
2018-02-15T07:31:45.724Z,23.69
2018-02-15T07:34:15.451Z,23.61
2018-02-15T07:36:45.778Z,23.46
2018-02-15T07:39:15.235Z,23.92
2018-02-15T07:41:44.881Z,24.48
2018-02-15T07:44:13.919Z,24.84
2018-02-15T07:46:42.742Z,25.06
2018-02-15T07:49:12.437Z,24.58
2018-02-15T07:51:41.744Z,24.23
2018-02-15T07:54:11.450Z,23.94
2018-02-15T07:56:41.188Z,23.71
2018-02-15T07:59:10.909Z,23.49
2018-02-15T08:01:39.418Z,23.34
2018-02-15T08:04:09.364Z,23.32
2018-02-15T08:06:38.918Z,23.49
2018-02-15T08:09:07.921Z,23.39
2018-02-15T08:11:36.422Z,23.49
2018-02-15T08:15:15.909Z,24.14
2018-02-15T08:17:44.791Z,24.66
2018-02-15T08:20:13.697Z,22.06
2018-02-15T08:22:42.796Z,20.09
2018-02-15T08:25:12.460Z,19.10
2018-02-15T08:27:41.896Z,19.01
2018-02-15T08:30:11.557Z,18.67
2018-02-15T08:32:41.220Z,18.80
2018-02-15T08:35:09.702Z,18.68
2018-02-15T08:37:39.230Z,17.86
2018-02-15T08:40:08.738Z,17.52
2018-02-15T08:42:37.936Z,17.20
2018-02-15T08:45:06.701Z,17.39
2018-02-15T08:47:36.394Z,16.86
2018-02-15T08:50:06.215Z,16.95
2018-02-15T08:52:35.816Z,16.42
2018-02-15T08:55:04.925Z,17.23
2018-02-15T08:57:33.684Z,17.11
2018-02-15T09:00:03.073Z,16.90
2018-02-15T09:06:17.887Z,17.64
2018-02-15T09:08:47.589Z,17.77
2018-02-15T09:11:16.938Z,16.78
2018-02-15T09:16:03.930Z,16.59
2018-02-15T09:18:32.821Z,16.17
2018-02-15T09:21:02.431Z,16.55
2018-02-15T09:23:31.681Z,16.94
2018-02-15T09:26:00.799Z,16.67
2018-02-15T09:28:30.202Z,16.66
2018-02-15T09:30:59.956Z,16.64
2018-02-15T09:33:28.671Z,17.09
2018-02-15T09:37:28.179Z,17.10
2018-02-15T09:39:57.694Z,17.56
2018-02-15T09:42:26.898Z,17.44
2018-02-15T09:44:56.205Z,16.90
2018-02-15T09:49:11.986Z,17.73
2018-02-15T09:51:40.891Z,21.11
2018-02-15T09:54:10.334Z,22.72
2018-02-15T10:00:24.501Z,24.26
2018-02-15T10:05:31.411Z,23.83
2018-02-15T10:07:59.831Z,23.48
2018-02-15T10:10:29.432Z,23.25
2018-02-15T10:13:00.725Z,23.14
2018-02-15T10:15:29.771Z,23.27
2018-02-15T10:17:59.229Z,23.19
2018-02-15T10:20:28.457Z,23.03
2018-02-15T10:22:57.710Z,23.32
2018-02-15T10:25:26.788Z,23.80
2018-02-15T10:27:55.769Z,24.15
2018-02-15T10:30:24.767Z,24.82
2018-02-15T10:32:53.996Z,25.00
2018-02-15T10:35:22.707Z,24.36
2018-02-15T10:37:52.199Z,24.00
2018-02-15T10:40:21.978Z,23.83
2018-02-15T10:42:51.475Z,23.60
2018-02-15T10:45:21.183Z,23.62
2018-02-15T10:47:49.709Z,23.53
2018-02-15T10:50:19.061Z,23.49
2018-02-15T10:52:47.825Z,23.42
2018-02-15T10:55:16.799Z,23.30
2018-02-15T10:57:46.413Z,24.06
2018-02-15T11:00:16.649Z,24.47
2018-02-15T11:02:45.881Z,24.69
2018-02-15T11:08:48.507Z,23.99
2018-02-15T11:13:07.897Z,23.35
2018-02-15T11:15:36.557Z,23.19
2018-02-15T11:18:05.774Z,23.19
2018-02-15T11:20:34.800Z,23.15
2018-02-15T11:23:03.826Z,23.13
2018-02-15T11:25:33.204Z,23.17
2018-02-15T11:28:03.423Z,24.13
2018-02-15T11:30:32.816Z,24.63
2018-02-15T11:33:01.883Z,24.97
2018-02-15T11:35:31.195Z,24.67
2018-02-15T11:38:00.560Z,23.96
2018-02-15T11:40:30.715Z,23.76
2018-02-15T11:42:59.864Z,23.61
2018-02-15T11:45:29.219Z,23.52
2018-02-15T11:47:58.784Z,23.46
2018-02-15T11:50:27.795Z,23.41
2018-02-15T11:52:56.806Z,23.32
2018-02-15T11:55:25.929Z,23.26
2018-02-15T11:57:54.825Z,23.23
2018-02-15T12:00:24.421Z,23.49
2018-02-15T12:04:09.694Z,24.49
2018-02-15T12:06:39.432Z,24.78
2018-02-15T12:09:09.201Z,24.88
2018-02-15T12:11:38.664Z,24.19
2018-02-15T12:14:07.872Z,23.88
2018-02-15T12:16:37.613Z,23.69
2018-02-15T12:19:07.226Z,23.59
2018-02-15T12:21:36.644Z,23.51
2018-02-15T12:24:06.589Z,23.47
2018-02-15T12:26:36.044Z,23.41
2018-02-15T12:29:04.803Z,23.45
2018-02-15T12:31:34.346Z,23.43
2018-02-15T12:34:03.905Z,23.46
2018-02-15T12:36:33.379Z,23.44
2018-02-15T12:39:03.406Z,23.77
2018-02-15T12:41:33.208Z,24.66
2018-02-15T12:44:03.271Z,25.02
2018-02-15T12:46:32.908Z,24.99
2018-02-15T12:49:01.745Z,24.45
2018-02-15T12:51:31.464Z,24.04
2018-02-15T12:54:01.508Z,23.78
2018-02-15T12:59:13.211Z,23.45
2018-02-15T13:01:42.779Z,23.32
2018-02-15T13:06:06.864Z,23.23
2018-02-15T13:08:36.372Z,23.12
2018-02-15T13:11:06.379Z,23.08
2018-02-15T13:13:35.937Z,23.89
2018-02-15T13:16:10.741Z,24.26
2018-02-15T13:18:40.180Z,24.60
2018-02-15T13:21:10.194Z,24.59
2018-02-15T13:23:39.559Z,23.99
2018-02-15T13:26:08.789Z,23.83
2018-02-15T13:28:39.506Z,23.69
2018-02-15T13:31:08.806Z,23.62
2018-02-15T13:33:37.816Z,23.57
2018-02-15T13:36:07.225Z,23.61
2018-02-15T13:38:36.816Z,23.50
2018-02-15T13:41:05.819Z,23.46
2018-02-15T13:43:34.801Z,23.43
2018-02-15T13:48:13.792Z,24.03
2018-02-15T13:51:14.776Z,24.69
2018-02-15T13:53:43.861Z,24.82
2018-02-15T13:56:13.507Z,24.80
2018-02-15T13:58:42.814Z,24.23
2018-02-15T14:01:12.337Z,23.96
2018-02-15T14:03:41.875Z,23.82
2018-02-15T14:06:53.492Z,23.67
2018-02-15T14:09:23.404Z,23.57
2018-02-15T14:11:52.916Z,23.54
2018-02-15T14:14:21.830Z,23.49
2018-02-15T14:16:51.262Z,23.47
2018-02-15T14:19:21.231Z,23.43
2018-02-15T14:22:09.919Z,23.41
2018-02-15T14:24:38.497Z,23.37
2018-02-15T14:27:08.334Z,23.40
2018-02-15T14:29:37.812Z,24.01
2018-02-15T14:32:07.484Z,24.39
2018-02-15T14:34:36.833Z,24.71
2018-02-15T14:37:06.330Z,24.78
2018-02-15T14:39:35.904Z,24.07
2018-02-15T14:42:04.539Z,23.74
2018-02-15T14:45:52.764Z,23.55
2018-02-15T14:48:21.692Z,23.49
2018-02-15T14:50:50.817Z,23.34
2018-02-15T14:53:19.867Z,23.29
2018-02-15T14:55:48.732Z,23.26
2018-02-15T14:58:17.817Z,23.21
2018-02-15T15:00:46.716Z,23.19
2018-02-15T15:03:16.361Z,23.13
2018-02-15T15:05:45.790Z,23.12
2018-02-15T15:08:14.878Z,23.64
2018-02-15T15:10:43.855Z,24.38
2018-02-15T15:14:34.398Z,24.75
2018-02-15T15:19:41.505Z,23.70
2018-02-15T15:22:10.744Z,23.53
2018-02-15T15:24:39.745Z,23.43
2018-02-15T15:27:08.774Z,23.30
2018-02-15T15:29:37.803Z,23.19
2018-02-15T15:32:06.808Z,23.10
2018-02-15T15:34:35.724Z,23.08
2018-02-15T15:37:04.893Z,23.01
2018-02-15T15:40:00.532Z,22.97
2018-02-15T15:42:30.402Z,22.98
2018-02-15T15:44:59.781Z,23.41
2018-02-15T15:48:25.770Z,24.12
2018-02-15T15:50:55.193Z,24.60
2018-02-15T15:53:24.560Z,24.34
2018-02-15T15:55:53.874Z,23.67
2018-02-15T15:58:22.926Z,23.38
2018-02-15T16:00:51.556Z,23.26
2018-02-15T16:03:21.008Z,23.19
2018-02-15T16:05:49.695Z,23.13
2018-02-15T16:08:19.049Z,23.10
2018-02-15T16:10:47.823Z,23.04
2018-02-15T16:13:16.871Z,23.01
2018-02-15T16:15:46.465Z,23.00
2018-02-15T16:18:15.944Z,22.99
2018-02-15T16:20:44.698Z,22.98
2018-02-15T16:23:13.872Z,23.85
2018-02-15T16:25:43.191Z,24.25
2018-02-15T16:28:13.199Z,24.63
2018-02-15T16:30:42.577Z,24.44
2018-02-15T16:33:12.201Z,23.76
2018-02-15T16:35:41.805Z,23.53
2018-02-15T16:38:11.189Z,23.36
2018-02-15T16:40:40.921Z,23.25
2018-02-15T16:43:09.856Z,23.12
2018-02-15T16:46:06.253Z,23.08
2018-02-15T16:48:35.608Z,23.04
2018-02-15T16:51:05.361Z,23.00
2018-02-15T16:53:34.761Z,22.95
2018-02-15T16:56:04.258Z,22.92
2018-02-15T16:58:33.881Z,23.72
2018-02-15T17:01:03.344Z,24.31
2018-02-15T17:03:32.888Z,24.45
2018-02-15T17:06:01.815Z,24.39
2018-02-15T17:08:30.961Z,24.25
2018-02-15T17:10:59.725Z,23.46
2018-02-15T17:13:29.221Z,23.00
2018-02-15T17:15:58.682Z,22.70
2018-02-15T17:18:28.228Z,22.48
2018-02-15T17:20:57.633Z,22.34
2018-02-15T17:23:26.795Z,22.25
2018-02-15T17:25:56.219Z,22.16
2018-02-15T17:28:25.556Z,22.09
2018-02-15T17:30:54.827Z,22.08
2018-02-15T17:33:24.006Z,23.15
2018-02-15T17:35:52.705Z,23.60
2018-02-15T17:38:21.969Z,23.93
2018-02-15T17:42:17.930Z,23.71
2018-02-15T17:44:47.066Z,22.72
2018-02-15T17:47:16.643Z,22.72
2018-02-15T17:52:22.646Z,22.62
2018-02-15T17:54:51.936Z,22.55
2018-02-15T17:59:23.931Z,22.50
2018-02-15T18:04:27.245Z,23.29
2018-02-15T18:07:49.786Z,24.21
2018-02-15T18:11:47.903Z,24.49
2018-02-15T18:14:16.747Z,24.24
2018-02-15T18:16:46.193Z,23.56
2018-02-15T18:19:15.929Z,23.33
2018-02-15T18:22:20.807Z,23.15
2018-02-15T18:24:50.224Z,23.00
2018-02-15T18:27:20.206Z,22.97
2018-02-15T18:29:49.591Z,22.90
2018-02-15T18:32:18.904Z,22.86
2018-02-15T18:34:48.326Z,22.84
2018-02-15T18:37:18.260Z,22.78
2018-02-15T18:39:47.927Z,22.80
2018-02-15T18:42:16.728Z,23.26
2018-02-15T18:44:46.240Z,23.94
2018-02-15T18:50:37.668Z,24.53
2018-02-15T18:53:07.469Z,23.81
2018-02-15T18:55:37.195Z,23.39
2018-02-15T18:58:06.565Z,23.24
2018-02-15T19:00:36.214Z,23.15
2018-02-15T19:03:05.719Z,23.01
2018-02-15T19:05:34.813Z,22.93
2018-02-15T19:08:04.343Z,22.86
2018-02-15T19:10:33.928Z,22.84
2018-02-15T19:13:02.596Z,22.86
2018-02-15T19:15:31.719Z,22.93
2018-02-15T19:18:00.900Z,22.99
2018-02-15T19:20:29.899Z,23.92
2018-02-15T19:22:59.230Z,24.15
2018-02-15T19:25:28.880Z,24.46
2018-02-15T19:27:58.215Z,24.64
2018-02-15T19:30:27.224Z,23.87
2018-02-15T19:32:56.633Z,23.35
2018-02-15T19:35:26.012Z,23.19
2018-02-15T19:37:54.813Z,23.04
2018-02-15T19:40:24.232Z,22.94
2018-02-15T19:42:53.654Z,22.78
2018-02-15T19:45:22.924Z,22.74
2018-02-15T19:47:51.631Z,22.73
2018-02-15T19:50:21.208Z,22.78
2018-02-15T19:52:50.807Z,23.67
2018-02-15T19:55:19.825Z,24.08
2018-02-15T19:57:49.378Z,24.29
2018-02-15T20:00:18.662Z,24.56
2018-02-15T20:02:48.393Z,24.04
2018-02-15T20:05:17.906Z,23.56
2018-02-15T20:07:46.556Z,23.36
2018-02-15T20:10:15.813Z,23.16
2018-02-15T20:12:44.896Z,23.08
2018-02-15T20:15:13.444Z,23.03
2018-02-15T20:17:43.481Z,23.00
2018-02-15T20:20:24.760Z,22.99
2018-02-15T20:22:54.185Z,22.94
2018-02-15T20:25:23.604Z,22.92
2018-02-15T20:27:58.707Z,22.88
2018-02-15T20:32:29.835Z,24.08
2018-02-15T20:34:59.369Z,24.31
2018-02-15T20:37:34.746Z,24.50
2018-02-15T20:40:09.741Z,23.99
2018-02-15T20:44:18.208Z,23.40
2018-02-15T20:46:47.504Z,23.29
2018-02-15T20:49:22.789Z,23.16
2018-02-15T20:51:57.628Z,23.03
2018-02-15T20:54:32.735Z,22.99
2018-02-15T20:57:01.893Z,22.91
2018-02-15T20:59:31.381Z,22.78
2018-02-15T21:02:00.587Z,22.76
2018-02-15T21:04:29.669Z,23.02
2018-02-15T21:09:16.860Z,24.15
2018-02-15T21:13:07.802Z,24.59
2018-02-15T21:15:37.428Z,24.34
2018-02-15T21:18:07.176Z,23.59
2018-02-15T21:20:36.394Z,23.30
2018-02-15T21:23:06.183Z,23.19
2018-02-15T21:25:35.649Z,23.11
2018-02-15T21:28:04.917Z,23.05
2018-02-15T21:30:33.694Z,22.99
2018-02-15T21:33:04.357Z,22.94
2018-02-15T21:35:33.693Z,22.94
2018-02-15T21:38:03.325Z,22.90
2018-02-15T21:40:32.566Z,22.93
2018-02-15T21:43:01.916Z,23.37
2018-02-15T21:45:30.903Z,24.05
2018-02-15T21:50:28.931Z,24.64
2018-02-15T21:52:57.668Z,24.60
2018-02-15T21:55:27.469Z,23.94
2018-02-15T21:57:56.821Z,23.63
2018-02-15T22:02:05.715Z,23.32
2018-02-15T22:04:34.789Z,23.23
2018-02-15T22:07:03.925Z,23.16
2018-02-15T22:09:32.589Z,23.08
2018-02-15T22:12:01.818Z,23.02
2018-02-15T22:14:30.918Z,22.94
2018-02-15T22:16:59.618Z,22.90
2018-02-15T22:22:10.734Z,24.28
2018-02-15T22:24:39.741Z,24.41
2018-02-15T22:27:08.752Z,24.77
2018-02-15T22:29:37.691Z,24.18
2018-02-15T22:32:06.696Z,23.70
2018-02-15T22:34:35.699Z,23.53
2018-02-15T22:37:04.726Z,23.38
2018-02-15T22:39:33.705Z,23.26
2018-02-15T22:42:02.651Z,23.21
2018-02-15T22:44:31.721Z,23.19
2018-02-15T22:47:00.931Z,23.12
2018-02-15T22:49:29.662Z,23.10
2018-02-15T22:51:58.969Z,23.05
2018-02-15T22:54:27.591Z,23.49
2018-02-15T22:56:57.227Z,24.16
2018-02-15T22:59:26.755Z,24.47
2018-02-15T23:01:56.344Z,24.55
2018-02-15T23:04:25.743Z,24.31
2018-02-15T23:06:56.421Z,23.70
2018-02-15T23:09:25.683Z,23.49
2018-02-15T23:11:55.443Z,23.40
2018-02-15T23:14:25.213Z,23.33
2018-02-15T23:16:54.683Z,23.22
2018-02-15T23:21:47.795Z,23.08
2018-02-15T23:24:17.517Z,23.04
2018-02-15T23:26:47.449Z,23.06
2018-02-15T23:29:16.805Z,23.32
2018-02-15T23:31:46.362Z,24.07
2018-02-15T23:34:16.184Z,24.42
2018-02-15T23:36:45.619Z,24.66
2018-02-15T23:39:15.391Z,24.75
2018-02-15T23:41:45.417Z,23.97
2018-02-15T23:44:15.424Z,23.64
2018-02-15T23:49:16.479Z,23.25
2018-02-15T23:51:45.690Z,23.16
2018-02-15T23:54:15.015Z,23.23
2018-02-15T23:56:43.806Z,23.14
2018-02-15T23:59:12.883Z,23.10
